createdAt,value
2018-04-15T00:00:49.597Z,101.97
2018-04-15T00:02:52.326Z,119.30
2018-04-15T00:04:55.063Z,107.80
2018-04-15T00:06:57.822Z,108.53
2018-04-15T00:09:00.688Z,112.10
2018-04-15T00:11:03.440Z,108.40
2018-04-15T00:13:06.156Z,114.77
2018-04-15T00:15:08.899Z,104.03
2018-04-15T00:17:11.615Z,122.47
2018-04-15T00:19:14.341Z,102.73
2018-04-15T00:21:17.074Z,110.77
2018-04-15T00:23:19.814Z,102.57
2018-04-15T00:25:22.541Z,113.07
2018-04-15T00:27:25.263Z,102.60
2018-04-15T00:29:28.004Z,100.27
2018-04-15T00:31:30.742Z,96.70
2018-04-15T00:33:33.474Z,98.47
2018-04-15T00:35:36.201Z,101.47
2018-04-15T00:37:38.930Z,85.43
2018-04-15T00:39:41.650Z,102.53
2018-04-15T00:41:44.396Z,98.97
2018-04-15T00:43:47.117Z,98.33
2018-04-15T00:45:49.855Z,93.33
2018-04-15T00:47:52.588Z,96.33
2018-04-15T00:49:55.318Z,93.80
2018-04-15T00:51:58.037Z,94.03
2018-04-15T00:54:06.827Z,96.47
2018-04-15T00:56:10.714Z,93.13
2018-04-15T00:58:14.398Z,92.57
2018-04-15T01:00:17.113Z,83.10
2018-04-15T01:02:20.014Z,90.07
2018-04-15T01:04:22.731Z,87.03
2018-04-15T01:06:25.493Z,83.87
2018-04-15T01:08:28.250Z,79.87
2018-04-15T01:10:30.963Z,83.43
2018-04-15T01:12:33.706Z,103.77
2018-04-15T01:14:36.686Z,87.60
2018-04-15T01:16:39.395Z,87.47
2018-04-15T01:18:42.120Z,90.50
2018-04-15T01:20:44.850Z,90.20
2018-04-15T01:22:47.610Z,82.23
2018-04-15T01:24:50.327Z,80.70
2018-04-15T01:26:53.058Z,85.87
2018-04-15T01:28:55.838Z,88.80
2018-04-15T01:30:58.625Z,88.20
2018-04-15T01:33:01.379Z,88.43
2018-04-15T01:35:04.122Z,90.13
2018-04-15T01:37:06.886Z,82.00
2018-04-15T01:39:09.979Z,90.47
2018-04-15T01:41:12.705Z,151.10
2018-04-15T01:43:15.431Z,100.57
2018-04-15T01:45:18.275Z,161.53
2018-04-15T01:47:21.043Z,105.37
2018-04-15T01:49:23.768Z,86.90
2018-04-15T01:51:26.511Z,85.30
2018-04-15T01:53:29.236Z,88.77
2018-04-15T01:55:31.986Z,80.87
2018-04-15T01:57:34.713Z,80.27
2018-04-15T01:59:37.605Z,83.27
2018-04-15T02:01:40.334Z,82.97
2018-04-15T02:03:43.082Z,82.77
2018-04-15T02:05:45.819Z,84.07
2018-04-15T02:07:48.586Z,76.70
2018-04-15T02:09:51.327Z,78.57
2018-04-15T02:11:54.072Z,79.13
2018-04-15T02:13:56.826Z,89.83
2018-04-15T02:15:59.668Z,74.47
2018-04-15T02:18:02.386Z,86.43
2018-04-15T02:20:05.128Z,75.23
2018-04-15T02:22:07.886Z,78.27
2018-04-15T02:24:10.598Z,78.63
2018-04-15T02:26:13.317Z,84.23
2018-04-15T02:28:16.232Z,72.40
2018-04-15T02:30:18.953Z,79.30
2018-04-15T02:32:21.686Z,74.67
2018-04-15T02:34:24.667Z,75.47
2018-04-15T02:36:27.375Z,84.80
2018-04-15T02:38:30.086Z,80.27
2018-04-15T02:40:32.939Z,77.63
2018-04-15T02:42:35.667Z,84.30
2018-04-15T02:44:38.409Z,79.67
2018-04-15T02:46:41.254Z,79.67
2018-04-15T02:48:43.979Z,91.77
2018-04-15T02:50:46.709Z,75.23
2018-04-15T02:52:49.448Z,84.33
2018-04-15T02:54:52.240Z,102.37
2018-04-15T02:56:55.018Z,171.10
2018-04-15T02:58:57.883Z,198.23
2018-04-15T03:01:00.650Z,341.00
2018-04-15T03:03:03.381Z,192.07
2018-04-15T03:05:06.122Z,116.63
2018-04-15T03:07:08.840Z,104.10
2018-04-15T03:09:11.594Z,85.03
2018-04-15T03:11:14.334Z,103.13
2018-04-15T03:13:17.046Z,93.87
2018-04-15T03:15:19.770Z,92.37
2018-04-15T03:17:22.510Z,79.73
2018-04-15T03:19:25.240Z,90.67
2018-04-15T03:21:27.966Z,84.33
2018-04-15T03:23:30.705Z,82.30
2018-04-15T03:25:33.430Z,84.30
2018-04-15T03:27:36.154Z,80.27
2018-04-15T03:29:38.902Z,155.60
2018-04-15T03:31:41.635Z,157.73
2018-04-15T03:33:44.353Z,186.47
2018-04-15T03:35:47.083Z,105.23
2018-04-15T03:37:49.801Z,115.97
2018-04-15T03:39:52.514Z,82.03
2018-04-15T03:41:55.248Z,84.30
2018-04-15T03:43:57.973Z,79.90
2018-04-15T03:46:00.693Z,87.33
2018-04-15T03:48:03.602Z,86.37
2018-04-15T03:50:06.322Z,85.97
2018-04-15T03:52:09.046Z,92.63
2018-04-15T03:54:12.126Z,84.93
2018-04-15T03:56:14.846Z,82.90
2018-04-15T03:58:17.582Z,84.47
2018-04-15T04:00:20.301Z,84.30
2018-04-15T04:02:23.038Z,74.07
2018-04-15T04:04:25.770Z,86.73
2018-04-15T04:06:28.862Z,83.37
2018-04-15T04:08:31.582Z,85.53
2018-04-15T04:10:34.299Z,83.00
2018-04-15T04:12:37.109Z,73.80
2018-04-15T04:14:39.822Z,83.80
2018-04-15T04:16:42.536Z,74.00
2018-04-15T04:18:51.531Z,80.27
2018-04-15T04:21:00.486Z,74.80
2018-04-15T04:23:09.341Z,78.00
2018-04-15T04:25:18.443Z,73.20
2018-04-15T04:27:21.190Z,75.80
2018-04-15T04:29:23.926Z,106.53
2018-04-15T04:31:26.663Z,83.37
2018-04-15T04:33:29.390Z,81.63
2018-04-15T04:35:32.123Z,90.60
2018-04-15T04:37:34.889Z,84.97
2018-04-15T04:39:37.642Z,79.93
2018-04-15T04:41:40.398Z,83.37
2018-04-15T04:43:44.318Z,78.60
2018-04-15T04:45:47.053Z,75.73
2018-04-15T04:47:49.787Z,86.53
2018-04-15T04:49:52.515Z,124.37
2018-04-15T04:51:55.249Z,88.57
2018-04-15T04:53:57.974Z,200.10
2018-04-15T04:56:00.705Z,212.77
2018-04-15T04:58:03.622Z,270.77
2018-04-15T05:00:06.347Z,197.70
2018-04-15T05:02:09.088Z,164.80
2018-04-15T05:04:11.849Z,141.93
2018-04-15T05:06:14.589Z,136.13
2018-04-15T05:08:17.323Z,136.10
2018-04-15T05:10:20.227Z,138.93
2018-04-15T05:12:22.978Z,135.43
2018-04-15T05:14:25.715Z,128.53
2018-04-15T05:16:28.462Z,132.97
2018-04-15T05:18:31.206Z,143.50
2018-04-15T05:20:33.940Z,138.67
2018-04-15T05:22:36.647Z,135.33
2018-04-15T05:24:39.435Z,139.73
2018-04-15T05:26:45.184Z,104.10
2018-04-15T05:28:48.674Z,117.93
2018-04-15T05:30:54.187Z,108.33
2018-04-15T05:32:59.582Z,127.20
2018-04-15T05:35:02.307Z,76.57
2018-04-15T05:37:03.666Z,103.77
2018-04-15T05:39:06.407Z,117.00
2018-04-15T05:41:09.122Z,89.70
2018-04-15T05:43:11.839Z,141.30
2018-04-15T05:45:14.674Z,87.90
2018-04-15T05:47:17.423Z,97.23
2018-04-15T05:49:20.142Z,76.77
2018-04-15T05:51:22.867Z,137.10
2018-04-15T05:53:25.590Z,130.00
2018-04-15T05:55:28.428Z,81.60
2018-04-15T05:57:31.477Z,91.50
2018-04-15T05:59:34.233Z,89.70
2018-04-15T06:01:36.930Z,74.37
2018-04-15T06:03:39.671Z,81.90
2018-04-15T06:05:42.385Z,78.97
2018-04-15T06:07:45.110Z,96.17
2018-04-15T06:09:47.847Z,75.37
2018-04-15T06:11:51.559Z,66.40
2018-04-15T06:13:54.314Z,65.33
2018-04-15T06:15:57.127Z,72.17
2018-04-15T06:17:59.854Z,71.70
2018-04-15T06:20:02.689Z,65.90
2018-04-15T06:22:05.438Z,64.43
2018-04-15T06:24:08.232Z,71.43
2018-04-15T06:26:10.969Z,76.27
2018-04-15T06:28:13.694Z,68.47
2018-04-15T06:30:16.440Z,75.60
2018-04-15T06:32:19.169Z,67.60
2018-04-15T06:34:21.915Z,72.33
2018-04-15T06:36:24.662Z,75.83
2018-04-15T06:38:27.381Z,69.63
2018-04-15T06:40:30.111Z,70.57
2018-04-15T06:42:32.863Z,74.63
2018-04-15T06:44:35.611Z,70.20
2018-04-15T06:46:38.343Z,69.83
2018-04-15T06:48:41.419Z,67.73
2018-04-15T06:50:44.146Z,72.80
2018-04-15T06:52:47.089Z,67.07
2018-04-15T06:54:49.821Z,65.90
2018-04-15T06:56:52.567Z,65.23
2018-04-15T06:58:55.293Z,63.97
2018-04-15T07:00:58.031Z,65.60
2018-04-15T07:03:02.198Z,64.30
2018-04-15T07:05:07.130Z,72.13
2018-04-15T07:07:10.266Z,66.23
2018-04-15T07:09:13.087Z,70.90
2018-04-15T07:11:15.995Z,64.50
2018-04-15T07:13:18.879Z,67.57
2018-04-15T07:15:21.695Z,68.80
2018-04-15T07:17:24.560Z,66.87
2018-04-15T07:19:28.386Z,64.80
2018-04-15T07:21:31.204Z,63.47
2018-04-15T07:23:33.982Z,59.37
2018-04-15T07:25:36.761Z,69.20
2018-04-15T07:27:39.660Z,67.57
2018-04-15T07:29:42.438Z,79.20
2018-04-15T07:31:46.178Z,65.43
2018-04-15T07:33:48.997Z,68.97
2018-04-15T07:35:51.780Z,70.57
2018-04-15T07:37:54.579Z,76.17
2018-04-15T07:39:57.434Z,66.93
2018-04-15T07:42:00.216Z,66.20
2018-04-15T07:44:02.987Z,80.07
2018-04-15T07:46:05.768Z,77.97
2018-04-15T07:48:08.558Z,70.60
2018-04-15T07:50:11.326Z,65.23
2018-04-15T07:52:14.151Z,67.47
2018-04-15T07:54:17.013Z,63.07
2018-04-15T07:56:19.819Z,65.93
2018-04-15T07:58:22.589Z,64.77
2018-04-15T08:00:25.319Z,70.67
2018-04-15T08:02:28.127Z,69.60
2018-04-15T08:04:31.187Z,82.30
2018-04-15T08:06:34.101Z,71.57
2018-04-15T08:08:36.839Z,69.57
2018-04-15T08:10:39.841Z,64.77
2018-04-15T08:12:42.594Z,67.80
2018-04-15T08:14:45.931Z,73.17
2018-04-15T08:16:48.867Z,65.40
2018-04-15T08:18:51.938Z,70.87
2018-04-15T08:20:54.861Z,62.97
2018-04-15T08:22:57.635Z,61.67
2018-04-15T08:25:01.186Z,67.93
2018-04-15T08:27:03.951Z,66.70
2018-04-15T08:29:06.679Z,64.70
2018-04-15T08:31:09.413Z,64.63
2018-04-15T08:33:12.154Z,63.87
2018-04-15T08:35:15.490Z,65.97
2018-04-15T08:39:40.785Z,105.40
2018-04-15T08:41:43.793Z,68.60
2018-04-15T08:43:46.927Z,72.63
2018-04-15T08:45:49.750Z,74.23
2018-04-15T08:47:52.598Z,73.40
2018-04-15T08:49:55.363Z,76.80
2018-04-15T08:51:58.174Z,73.60
2018-04-15T08:54:00.959Z,74.23
2018-04-15T08:56:03.885Z,72.80
2018-04-15T08:58:06.702Z,75.80
2018-04-15T09:00:09.551Z,74.67
2018-04-15T09:02:12.585Z,72.80
2018-04-15T09:04:15.355Z,74.70
2018-04-15T09:06:18.150Z,73.70
2018-04-15T09:08:20.943Z,74.13
2018-04-15T09:10:23.745Z,65.50
2018-04-15T09:12:26.618Z,73.77
2018-04-15T09:14:29.448Z,74.30
2018-04-15T09:16:32.175Z,65.33
2018-04-15T09:18:34.983Z,72.73
2018-04-15T09:20:37.757Z,66.73
2018-04-15T09:22:40.547Z,75.23
2018-04-15T09:24:44.923Z,76.03
2018-04-15T09:26:47.733Z,80.83
2018-04-15T09:28:50.518Z,64.80
2018-04-15T09:30:59.496Z,77.03
2018-04-15T09:33:02.298Z,77.20
2018-04-15T09:35:05.071Z,70.07
2018-04-15T09:37:07.851Z,83.77
2018-04-15T09:39:10.618Z,72.30
2018-04-15T09:41:13.405Z,83.40
2018-04-15T09:43:16.189Z,70.47
2018-04-15T09:45:18.962Z,76.00
2018-04-15T09:47:21.825Z,72.73
2018-04-15T09:49:24.662Z,124.83
2018-04-15T09:51:27.449Z,87.53
2018-04-15T09:53:30.233Z,67.43
2018-04-15T09:55:33.209Z,79.47
2018-04-15T09:57:35.974Z,80.00
2018-04-15T09:59:38.807Z,70.87
2018-04-15T10:01:41.587Z,69.47
2018-04-15T10:03:44.368Z,74.83
2018-04-15T10:05:47.119Z,71.20
2018-04-15T10:07:50.027Z,72.70
2018-04-15T10:09:52.826Z,70.63
2018-04-15T10:11:55.674Z,69.83
2018-04-15T10:14:14.219Z,76.33
2018-04-15T10:16:25.637Z,71.07
2018-04-15T11:20:00.625Z,73.60
2018-04-15T11:22:13.496Z,65.70
2018-04-15T11:27:00.073Z,71.17
2018-04-15T11:29:05.779Z,70.90
2018-04-15T11:36:32.927Z,65.40
2018-04-15T11:38:36.683Z,61.30
2018-04-15T11:42:57.026Z,59.67
2018-04-15T11:45:00.056Z,59.87
2018-04-15T11:47:20.886Z,62.07
2018-04-15T11:49:23.828Z,64.33
2018-04-15T11:51:29.050Z,59.57
2018-04-15T12:50:42.595Z,66.40
2018-04-15T12:52:46.484Z,68.13
2018-04-15T12:54:51.770Z,69.50
2018-04-15T12:57:15.301Z,66.80
2018-04-15T12:59:18.626Z,61.77
2018-04-15T13:04:08.714Z,62.03
2018-04-15T13:06:13.128Z,74.77
2018-04-15T13:10:39.509Z,64.00
2018-04-15T13:12:44.737Z,67.03
2018-04-15T13:14:46.997Z,63.43
2018-04-15T13:18:57.604Z,63.93
2018-04-15T13:34:22.756Z,67.87
2018-04-15T13:36:26.277Z,71.27
2018-04-15T13:38:41.299Z,60.93
2018-04-15T13:40:47.007Z,70.57
2018-04-15T13:42:52.164Z,65.30
2018-04-15T13:47:14.402Z,73.37
2018-04-15T18:36:48.093Z,53.47
2018-04-15T18:39:00.184Z,54.83
2018-04-15T18:41:14.812Z,58.57
2018-04-15T18:45:41.634Z,58.07
2018-04-15T18:54:01.047Z,61.07
2018-04-15T19:11:21.997Z,62.87
2018-04-15T19:13:46.759Z,67.60
2018-04-15T21:55:11.043Z,102.37
